Time;durP1;ratioP1;P1;durP2;ratioP2;P2;SDS_P1;SDS_P2;PMS_P1;PMS_P2;Temp;Humidity;BMP_temperature;BMP_pressure;BME280_temperature;BME280_humidity;BME280_pressure;Samples;Min_cycle;Max_cycle;Signal;HPM_P1;HPM_P2
2021/06/13 00:01:20;;;;;;;8.88;6.78;;;;;;;16.23;61.35;96391.41;4995780;28;20313;-75
2021/06/13 00:03:46;;;;;;;8.65;6.75;;;;;;;16.18;61.50;96385.88;4986990;28;20542;-74
2021/06/13 00:06:12;;;;;;;8.23;7.00;;;;;;;16.19;61.52;96392.75;4976009;28;20230;-75
2021/06/13 00:08:37;;;;;;;10.23;6.78;;;;;;;16.25;61.54;96386.84;4993563;28;20655;-74
2021/06/13 00:11:02;;;;;;;11.50;6.88;;;;;;;16.17;61.50;96390.28;4993563;28;20175;-74
2021/06/13 00:13:28;;;;;;;9.35;7.32;;;;;;;16.16;61.66;96391.25;4983945;28;20175;-75
2021/06/13 00:15:54;;;;;;;9.10;6.97;;;;;;;16.18;60.71;96389.31;4985658;28;20659;-74
2021/06/13 00:18:20;;;;;;;10.25;7.00;;;;;;;16.18;61.02;96391.94;4995214;28;20666;-74
2021/06/13 00:20:46;;;;;;;8.90;6.88;;;;;;;16.10;60.49;96392.72;4995084;28;20183;-74
2021/06/13 00:23:11;;;;;;;11.38;7.30;;;;;;;15.87;61.18;96386.44;4991287;28;20373;-75
2021/06/13 00:25:36;;;;;;;8.95;6.78;;;;;;;15.97;61.00;96384.50;4983532;28;20791;-75
2021/06/13 00:28:02;;;;;;;8.73;5.95;;;;;;;15.96;61.40;96393.34;4993042;28;20168;-74
2021/06/13 00:30:28;;;;;;;8.55;6.55;;;;;;;15.99;61.48;96387.81;4993055;28;20180;-75
2021/06/13 00:32:53;;;;;;;7.22;6.50;;;;;;;15.99;61.39;96393.03;4975183;28;20263;-74
2021/06/13 00:35:20;;;;;;;10.30;7.00;;;;;;;15.98;60.99;96388.75;4988394;28;57028;-74
2021/06/13 00:37:45;;;;;;;8.95;7.10;;;;;;;15.94;61.28;96397.09;4976459;28;20204;-75
2021/06/13 00:40:11;;;;;;;10.43;6.70;;;;;;;15.94;61.36;96395.31;4976511;28;20254;-74
2021/06/13 00:42:37;;;;;;;8.82;6.38;;;;;;;15.95;61.03;96401.38;4976370;28;20212;-75
2021/06/13 00:45:05;;;;;;;7.03;6.35;;;;;;;15.96;61.75;96401.19;4984969;28;20281;-75
2021/06/13 00:47:30;;;;;;;6.85;5.97;;;;;;;16.06;60.96;96401.88;4989864;28;20261;-75
2021/06/13 00:49:56;;;;;;;9.60;6.60;;;;;;;15.96;60.47;96392.53;5012204;28;20568;-75
2021/06/13 00:52:23;;;;;;;8.18;6.55;;;;;;;16.02;59.76;96392.72;5012004;28;20175;-75
2021/06/13 00:54:49;;;;;;;8.70;6.95;;;;;;;15.94;60.57;96394.50;5011443;28;20568;-75
2021/06/13 00:57:14;;;;;;;10.50;6.80;;;;;;;15.81;60.45;96387.06;4983965;28;20172;-75
2021/06/13 00:59:39;;;;;;;8.60;6.70;;;;;;;15.63;60.40;96386.34;4976164;28;20550;-75
2021/06/13 01:02:04;;;;;;;8.70;6.20;;;;;;;15.78;60.04;96390.03;4992337;28;20254;-74
2021/06/13 01:04:30;;;;;;;7.13;5.50;;;;;;;15.71;58.37;96387.22;4975534;28;20254;-74
2021/06/13 01:07:10;;;;;;;7.10;5.60;;;;;;;15.62;59.11;96395.19;5001549;28;20267;-74
2021/06/13 01:09:45;;;;;;;7.93;5.75;;;;;;;15.57;59.04;96400.88;4980808;28;20184;-74
2021/06/13 01:12:25;;;;;;;8.80;6.35;;;;;;;15.51;59.40;96398.88;4975825;28;20179;-74
2021/06/13 01:15:02;;;;;;;8.68;5.78;;;;;;;15.55;59.01;96393.19;4975737;28;20207;-75
2021/06/13 01:17:52;;;;;;;7.35;5.60;;;;;;;15.57;58.85;96393.84;4985652;28;20543;-75
2021/06/13 01:20:29;;;;;;;9.98;6.13;;;;;;;15.55;58.51;96392.38;4975782;28;20176;-74
2021/06/13 01:23:13;;;;;;;13.55;7.00;;;;;;;15.41;58.88;96396.41;4974907;28;20406;-75
2021/06/13 01:25:59;;;;;;;9.77;6.10;;;;;;;15.38;59.12;96391.47;4992925;28;20254;-74
2021/06/13 01:28:48;;;;;;;8.20;6.30;;;;;;;15.26;60.08;96390.09;4985062;28;20183;-74
2021/06/13 01:31:13;;;;;;;9.30;5.70;;;;;;;15.30;60.23;96389.66;4975324;28;20195;-75
2021/06/13 01:33:39;;;;;;;9.40;6.40;;;;;;;15.34;60.74;96390.16;4975452;28;20180;-75
2021/06/13 01:36:07;;;;;;;6.85;5.70;;;;;;;15.42;60.12;96387.56;4975361;28;20183;-75
2021/06/13 01:38:33;;;;;;;7.25;5.70;;;;;;;15.43;60.07;96381.34;4982999;28;20655;-75
2021/06/13 01:41:05;;;;;;;7.85;5.68;;;;;;;15.49;59.81;96387.75;5000672;28;20208;-75
2021/06/13 01:43:31;;;;;;;7.53;5.90;;;;;;;15.42;60.27;96390.19;4975063;28;20563;-75
2021/06/13 01:45:57;;;;;;;8.15;6.50;;;;;;;15.38;59.70;96385.44;4975048;28;20188;-74
2021/06/13 01:48:23;;;;;;;7.25;6.15;;;;;;;15.35;59.75;96383.94;4965819;28;20725;-75
2021/06/13 01:50:48;;;;;;;6.45;5.60;;;;;;;15.35;60.32;96383.94;4980467;28;20184;-74
2021/06/13 01:53:16;;;;;;;8.88;6.07;;;;;;;15.23;61.07;96379.97;4995099;28;20531;-74
2021/06/13 01:55:44;;;;;;;8.25;6.38;;;;;;;15.26;60.62;96384.88;5011973;28;20191;-75
2021/06/13 01:58:12;;;;;;;6.95;5.43;;;;;;;15.30;60.31;96386.22;4993439;28;20269;-74
2021/06/13 02:00:39;;;;;;;8.10;5.90;;;;;;;15.34;59.87;96381.47;5003125;28;20314;-75
2021/06/13 02:03:04;;;;;;;11.68;5.97;;;;;;;15.37;59.37;96376.75;4959572;28;20246;-74
2021/06/13 02:05:30;;;;;;;8.18;5.68;;;;;;;15.34;59.25;96381.47;4974762;28;20203;-75
2021/06/13 02:07:56;;;;;;;9.88;5.47;;;;;;;15.33;59.20;96385.88;4974997;28;20191;-75
2021/06/13 02:10:22;;;;;;;6.68;5.43;;;;;;;15.21;59.79;96380.13;4966393;28;20184;-75
2021/06/13 02:12:48;;;;;;;8.90;5.93;;;;;;;15.19;59.84;96383.84;4971457;28;20191;-75
2021/06/13 02:15:18;;;;;;;9.88;5.75;;;;;;;15.16;59.90;96382.38;4990749;28;20315;-75
2021/06/13 02:17:46;;;;;;;9.63;5.80;;;;;;;15.22;60.31;96389.59;4992540;28;20172;-74
2021/06/13 02:20:13;;;;;;;8.23;5.88;;;;;;;15.28;60.40;96382.91;4985909;28;20175;-75
2021/06/13 02:22:38;;;;;;;9.30;6.60;;;;;;;15.23;60.79;96382.56;4994115;28;20207;-74
2021/06/13 02:25:05;;;;;;;10.20;6.10;;;;;;;15.24;61.42;96376.34;4993825;28;20206;-74
2021/06/13 02:27:30;;;;;;;9.25;6.20;;;;;;;15.18;61.70;96377.78;5011605;28;20194;-74
2021/06/13 02:29:57;;;;;;;9.13;6.47;;;;;;;15.18;61.94;96382.22;4985842;28;20183;-73
2021/06/13 02:32:23;;;;;;;10.32;6.10;;;;;;;15.19;61.85;96383.84;4965040;28;20172;-74
2021/06/13 02:34:49;;;;;;;8.73;6.05;;;;;;;15.15;62.21;96377.28;4974294;28;20214;-73
2021/06/13 02:37:16;;;;;;;9.95;6.50;;;;;;;15.08;62.06;96376.28;4974533;28;20175;-75
2021/06/13 02:39:41;;;;;;;9.15;6.15;;;;;;;15.02;62.12;96378.53;4982144;28;20183;-74
2021/06/13 02:42:07;;;;;;;10.75;6.97;;;;;;;15.00;62.36;96382.28;4982987;28;20579;-75
2021/06/13 02:44:32;;;;;;;11.82;6.20;;;;;;;14.91;62.48;96391.84;4974264;28;20212;-75
2021/06/13 02:46:58;;;;;;;9.57;5.93;;;;;;;14.97;62.26;96390.44;4974515;28;20241;-74
2021/06/13 02:49:23;;;;;;;9.43;6.00;;;;;;;14.91;62.13;96391.84;4973968;28;20203;-73
2021/06/13 02:51:57;;;;;;;8.68;6.25;;;;;;;14.93;62.35;96389.94;4984775;28;20231;-74
2021/06/13 02:54:23;;;;;;;8.60;6.30;;;;;;;14.97;62.98;96395.66;4974216;28;20194;-74
2021/06/13 02:56:58;;;;;;;10.65;6.32;;;;;;;14.95;62.76;96397.63;4974505;28;20272;-74
2021/06/13 02:59:41;;;;;;;8.60;5.80;;;;;;;14.96;62.86;96399.25;4974551;28;20245;-74
2021/06/13 03:02:08;;;;;;;10.50;6.63;;;;;;;14.95;63.19;96408.91;4982599;28;20951;-74
2021/06/13 03:04:35;;;;;;;7.82;6.07;;;;;;;14.94;63.57;96402.03;4978984;28;20196;-75
2021/06/13 03:07:00;;;;;;;9.05;6.03;;;;;;;14.91;63.85;96404.94;4974413;28;20599;-74
2021/06/13 03:09:34;;;;;;;6.53;5.85;;;;;;;14.89;63.80;96404.28;4974380;28;20214;-74
2021/06/13 03:11:59;;;;;;;8.00;5.80;;;;;;;14.90;64.11;96408.53;4982550;28;20188;-74
2021/06/13 03:14:28;;;;;;;6.93;6.20;;;;;;;14.85;64.37;96417.81;4981673;28;20202;-74
2021/06/13 03:16:54;;;;;;;9.32;6.60;;;;;;;14.84;63.48;96418.78;4974366;28;20238;-74
2021/06/13 03:19:20;;;;;;;6.72;5.82;;;;;;;14.84;63.34;96408.31;4974391;28;20687;-74
2021/06/13 03:21:49;;;;;;;7.88;6.22;;;;;;;14.75;63.27;96407.44;4976110;28;20302;-73
2021/06/13 03:24:15;;;;;;;10.40;5.75;;;;;;;14.78;63.45;96412.38;4985529;28;20206;-74
2021/06/13 03:26:41;;;;;;;8.55;5.80;;;;;;;14.71;63.54;96419.19;4997226;28;20214;-74
2021/06/13 03:29:06;;;;;;;8.35;5.80;;;;;;;14.74;63.11;96411.84;4997048;28;20182;-74
2021/06/13 03:31:32;;;;;;;10.77;6.25;;;;;;;14.70;63.34;96420.16;4997186;28;20229;-74
2021/06/13 03:33:58;;;;;;;11.10;6.00;;;;;;;14.65;63.60;96417.97;4987192;28;20294;-74
2021/06/13 03:36:24;;;;;;;8.18;5.90;;;;;;;14.60;63.71;96424.66;5001573;28;20197;-74
2021/06/13 03:38:50;;;;;;;10.52;5.53;;;;;;;14.54;63.91;96420.03;4977618;28;20179;-73
2021/06/13 03:41:21;;;;;;;11.25;6.03;;;;;;;14.62;63.83;96423.53;4977562;28;20207;-75
2021/06/13 03:43:48;;;;;;;8.07;6.47;;;;;;;14.64;63.68;96415.53;4985284;28;20207;-73
2021/06/13 03:46:13;;;;;;;10.80;6.40;;;;;;;14.61;63.18;96421.06;4985374;28;20172;-76
2021/06/13 03:48:40;;;;;;;6.50;5.72;;;;;;;14.62;63.17;96427.94;4967199;28;20207;-76
2021/06/13 03:51:06;;;;;;;7.68;5.60;;;;;;;14.68;63.56;96432.56;4985058;28;20195;-76
2021/06/13 03:53:31;;;;;;;11.30;5.70;;;;;;;14.84;62.28;96431.84;4976787;28;20179;-76
2021/06/13 03:56:04;;;;;;;8.27;5.93;;;;;;;14.94;62.13;96432.59;4987577;28;20723;-75
2021/06/13 03:58:30;;;;;;;9.25;5.68;;;;;;;15.33;60.15;96440.84;4996890;28;20205;-73
2021/06/13 04:00:56;;;;;;;9.23;5.57;;;;;;;15.72;59.25;96429.91;4996675;28;20175;-74
2021/06/13 04:03:23;;;;;;;6.05;5.05;;;;;;;16.32;57.41;96430.59;4996418;28;20183;-74
2021/06/13 04:05:49;;;;;;;8.35;5.40;;;;;;;16.61;56.22;96440.63;4987197;28;20279;-74
2021/06/13 04:08:15;;;;;;;9.95;5.10;;;;;;;17.27;53.91;96444.88;4968316;28;20529;-74
2021/06/13 04:10:49;;;;;;;11.60;5.32;;;;;;;17.48;53.59;96459.25;4960901;28;20172;-74
2021/06/13 04:13:15;;;;;;;7.60;5.55;;;;;;;17.23;53.55;96453.25;4976626;28;20651;-75
2021/06/13 04:15:40;;;;;;;7.65;4.78;;;;;;;17.61;52.91;96449.03;4983774;28;20286;-75
2021/06/13 04:18:08;;;;;;;7.30;4.88;;;;;;;17.55;52.96;96449.72;4985538;28;20182;-74
2021/06/13 04:20:34;;;;;;;7.40;5.13;;;;;;;17.93;51.50;96461.25;4976712;28;20196;-74
2021/06/13 04:23:00;;;;;;;5.32;4.15;;;;;;;19.00;48.41;96464.09;4976646;28;20266;-74
2021/06/13 04:25:26;;;;;;;10.52;4.63;;;;;;;19.21;47.22;96469.47;4976547;28;20200;-74
2021/06/13 04:27:52;;;;;;;5.40;4.05;;;;;;;19.80;46.39;96461.66;4986265;28;20187;-74
2021/06/13 04:30:18;;;;;;;8.70;4.07;;;;;;;20.82;42.76;96469.50;4996222;28;20592;-74
2021/06/13 04:32:43;;;;;;;5.30;4.57;;;;;;;21.14;41.55;96476.91;5013654;28;20183;-74
2021/06/13 04:35:09;;;;;;;8.25;4.72;;;;;;;21.34;40.77;96471.00;4995604;28;20289;-74
2021/06/13 04:37:34;;;;;;;8.30;3.95;;;;;;;21.92;39.38;96472.38;5004895;28;20193;-76
2021/06/13 04:39:59;;;;;;;10.27;4.90;;;;;;;21.49;40.78;96477.81;4984414;28;20183;-73
2021/06/13 04:42:25;;;;;;;5.22;3.90;;;;;;;22.55;38.29;96475.69;4976218;28;20258;-74
2021/06/13 04:44:50;;;;;;;7.65;3.95;;;;;;;23.17;37.09;96485.19;4976042;28;20643;-74
2021/06/13 04:47:16;;;;;;;5.70;3.70;;;;;;;23.76;36.41;96478.19;4978706;28;20171;-74
2021/06/13 04:49:42;;;;;;;7.03;4.20;;;;;;;24.12;35.23;96474.22;5004743;28;20249;-74
2021/06/13 04:52:12;;;;;;;8.55;4.22;;;;;;;24.68;33.94;96474.41;4960761;28;20607;-75
2021/06/13 04:54:50;;;;;;;7.38;4.75;;;;;;;24.84;33.22;96483.72;4975847;28;20192;-74
2021/06/13 04:57:29;;;;;;;6.47;3.75;;;;;;;25.10;33.14;96488.06;4977668;28;20199;-74
2021/06/13 04:59:54;;;;;;;7.75;4.03;;;;;;;24.97;33.87;96483.59;4985887;28;20247;-75
2021/06/13 05:02:20;;;;;;;5.93;4.00;;;;;;;24.35;35.00;96479.88;4995460;28;20623;-74
2021/06/13 05:04:45;;;;;;;6.57;4.28;;;;;;;24.79;32.51;96481.69;4995170;28;20684;-75
2021/06/13 05:07:11;;;;;;;4.38;3.65;;;;;;;25.76;31.56;96481.34;4995519;28;20594;-75
2021/06/13 05:09:36;;;;;;;5.70;3.90;;;;;;;24.91;32.53;96483.63;4987578;28;20218;-75
2021/06/13 05:12:01;;;;;;;8.73;4.43;;;;;;;24.17;34.42;96479.72;4983702;28;20187;-74
2021/06/13 05:14:27;;;;;;;7.53;4.07;;;;;;;25.19;32.09;96481.44;4992790;28;20199;-76
2021/06/13 05:16:52;;;;;;;6.97;4.35;;;;;;;25.43;32.47;96483.25;4975838;28;20658;-74
2021/06/13 05:19:17;;;;;;;7.82;3.90;;;;;;;26.10;30.71;96493.28;4978111;28;20178;-75
2021/06/13 05:21:43;;;;;;;8.73;4.43;;;;;;;26.44;29.41;96484.72;4986912;28;20203;-75
2021/06/13 05:24:08;;;;;;;6.10;3.83;;;;;;;26.54;29.58;96492.97;4975831;28;20676;-75
2021/06/13 05:26:33;;;;;;;11.77;4.40;;;;;;;25.83;30.62;96490.91;4975672;28;20279;-75
2021/06/13 05:28:59;;;;;;;9.18;4.53;;;;;;;25.29;32.55;96496.91;4992873;28;20198;-75
2021/06/13 05:31:24;;;;;;;7.32;4.10;;;;;;;26.09;30.93;96504.97;4983811;28;20230;-74
2021/06/13 05:33:50;;;;;;;6.70;3.92;;;;;;;26.90;29.33;96506.41;5009166;28;20278;-75
2021/06/13 05:36:15;;;;;;;7.00;3.85;;;;;;;27.38;29.30;96512.47;4994998;28;20171;-74
2021/06/13 05:38:42;;;;;;;5.70;4.25;;;;;;;26.78;29.19;96507.19;4978613;28;20190;-75
2021/06/13 05:41:09;;;;;;;10.88;4.45;;;;;;;27.57;28.71;96510.53;4991208;28;20215;-75
2021/06/13 05:43:34;;;;;;;5.13;3.65;;;;;;;26.94;29.30;96510.25;4982843;28;20545;-75
2021/06/13 05:46:02;;;;;;;5.75;3.85;;;;;;;26.85;29.66;96511.59;4975217;28;20176;-75
2021/06/13 05:48:27;;;;;;;8.82;4.25;;;;;;;26.66;29.16;96513.50;4975259;28;20229;-75
2021/06/13 05:50:52;;;;;;;5.22;4.22;;;;;;;26.12;29.90;96513.31;4992205;28;20176;-74
2021/06/13 05:53:18;;;;;;;10.57;4.18;;;;;;;26.34;30.20;96519.00;5009656;28;20183;-75
2021/06/13 05:55:43;;;;;;;8.18;3.88;;;;;;;26.70;30.29;96523.50;4978666;28;20203;-76
2021/06/13 05:58:08;;;;;;;7.43;3.47;;;;;;;26.24;30.85;96514.22;4975119;28;20183;-75
2021/06/13 06:00:35;;;;;;;9.60;3.67;;;;;;;26.77;29.75;96515.44;4975085;28;20180;-75
2021/06/13 06:03:01;;;;;;;6.95;4.18;;;;;;;26.62;30.23;96518.47;4982892;28;20210;-76
2021/06/13 06:05:26;;;;;;;4.93;3.65;;;;;;;26.66;29.60;96519.66;5005676;28;20573;-75
2021/06/13 06:07:53;;;;;;;6.10;3.95;;;;;;;26.36;30.82;96518.78;4994438;28;20550;-75
2021/06/13 06:10:21;;;;;;;6.00;3.75;;;;;;;26.32;30.75;96512.25;4994223;28;20179;-75
2021/06/13 06:12:46;;;;;;;5.85;3.78;;;;;;;26.68;30.01;96511.44;4991885;28;20167;-76
2021/06/13 06:15:17;;;;;;;6.22;3.75;;;;;;;25.86;31.29;96514.41;4982368;28;20231;-74
2021/06/13 06:17:43;;;;;;;6.40;4.38;;;;;;;26.62;30.40;96523.00;4974897;28;20293;-75
2021/06/13 06:20:10;;;;;;;5.22;3.88;;;;;;;26.87;29.62;96518.34;4974604;28;20184;-75
2021/06/13 06:22:36;;;;;;;6.15;3.78;;;;;;;27.40;29.02;96519.44;4974582;28;20226;-75
2021/06/13 06:25:01;;;;;;;6.38;3.50;;;;;;;26.93;29.01;96521.94;4983225;28;20648;-75
2021/06/13 06:27:26;;;;;;;5.20;3.63;;;;;;;25.44;31.74;96523.94;4980689;28;20187;-76
2021/06/13 06:29:52;;;;;;;6.32;3.65;;;;;;;25.40;31.69;96523.59;4975060;28;20176;-76
2021/06/13 06:32:17;;;;;;;8.68;3.83;;;;;;;26.85;28.72;96525.75;4974666;28;20172;-75
2021/06/13 06:34:42;;;;;;;6.25;3.70;;;;;;;25.10;31.28;96528.72;4979974;28;20596;-75
2021/06/13 06:37:08;;;;;;;9.95;4.35;;;;;;;24.58;32.21;96535.13;4966073;28;20191;-75
2021/06/13 06:39:33;;;;;;;10.65;3.97;;;;;;;23.05;35.08;96531.00;4974505;28;20227;-76
2021/06/13 06:41:58;;;;;;;9.50;4.00;;;;;;;23.37;34.77;96524.91;4974545;28;20211;-76
2021/06/13 06:44:24;;;;;;;9.50;4.15;;;;;;;23.46;34.28;96542.25;4974862;28;20202;-76
2021/06/13 06:46:50;;;;;;;8.07;4.25;;;;;;;23.59;34.46;96544.13;4988548;28;20317;-76
2021/06/13 06:49:16;;;;;;;6.97;3.67;;;;;;;23.83;34.29;96547.97;4959714;28;20179;-76
2021/06/13 06:51:41;;;;;;;5.60;3.95;;;;;;;23.76;34.46;96547.16;4975225;28;20666;-75
2021/06/13 06:54:06;;;;;;;8.25;3.70;;;;;;;22.08;37.22;96553.22;4979864;28;20211;-76
2021/06/13 06:56:32;;;;;;;9.82;4.43;;;;;;;22.21;37.28;96548.03;4985046;28;20192;-75
2021/06/13 06:58:57;;;;;;;5.22;3.97;;;;;;;23.40;34.98;96543.06;4998758;28;20268;-75
2021/06/13 07:01:23;;;;;;;5.43;3.95;;;;;;;24.41;33.43;96553.38;4977094;28;20198;-76
2021/06/13 07:03:48;;;;;;;7.90;3.70;;;;;;;24.67;32.92;96554.28;4976835;28;20254;-76
2021/06/13 07:06:14;;;;;;;8.90;3.58;;;;;;;25.85;30.91;96562.53;4982507;28;20203;-76
2021/06/13 07:08:40;;;;;;;7.35;4.18;;;;;;;23.70;33.89;96556.75;4989419;28;20187;-76
2021/06/13 07:11:05;;;;;;;6.60;4.35;;;;;;;24.74;32.32;96563.06;4981818;28;20520;-76
2021/06/13 07:13:31;;;;;;;6.30;4.03;;;;;;;23.70;34.28;96566.56;4997531;28;20179;-75
2021/06/13 07:15:56;;;;;;;10.93;4.30;;;;;;;23.36;34.92;96568.34;4998005;28;20175;-76
2021/06/13 07:18:22;;;;;;;8.52;4.32;;;;;;;23.81;34.19;96573.88;5005796;28;20179;-75
2021/06/13 07:20:47;;;;;;;7.65;3.95;;;;;;;24.07;34.64;96582.81;4998702;28;20172;-75
2021/06/13 07:23:12;;;;;;;6.32;4.07;;;;;;;25.52;32.63;96578.72;4977495;28;20358;-76
2021/06/13 07:25:38;;;;;;;6.60;3.78;;;;;;;24.19;34.61;96573.19;4977686;28;20200;-75
2021/06/13 07:28:05;;;;;;;6.30;3.63;;;;;;;24.62;33.50;96570.03;4984347;28;20210;-76
2021/06/13 07:30:31;;;;;;;5.65;3.92;;;;;;;25.27;32.46;96581.38;4972110;28;20183;-76
2021/06/13 07:32:56;;;;;;;7.45;5.03;;;;;;;24.28;33.23;96579.91;4993926;28;20719;-76
2021/06/13 07:35:22;;;;;;;5.40;4.57;;;;;;;25.11;32.83;96577.38;4993453;28;20295;-76
2021/06/13 07:37:47;;;;;;;7.80;4.47;;;;;;;24.62;32.76;96581.47;4978666;28;20286;-75
2021/06/13 07:40:14;;;;;;;6.90;4.50;;;;;;;23.29;36.14;96575.47;4990371;28;20718;-76
2021/06/13 07:42:40;;;;;;;7.78;3.90;;;;;;;23.80;36.04;96582.88;4995177;28;20339;-75
2021/06/13 07:45:08;;;;;;;6.32;3.97;;;;;;;23.83;35.50;96587.75;4977459;28;20687;-76
2021/06/13 07:47:34;;;;;;;6.88;4.32;;;;;;;23.11;36.86;96589.31;4994752;28;20184;-75
2021/06/13 07:49:59;;;;;;;11.05;4.85;;;;;;;23.64;35.73;96594.69;4983993;28;20195;-76
2021/06/13 07:52:25;;;;;;;9.38;4.55;;;;;;;22.46;38.81;96601.28;4987751;28;20171;-76
2021/06/13 07:54:51;;;;;;;9.15;4.55;;;;;;;22.36;38.69;96600.81;4979570;28;20222;-75
2021/06/13 07:57:17;;;;;;;5.60;4.20;;;;;;;23.42;37.95;96598.53;4977345;28;20178;-76
2021/06/13 07:59:42;;;;;;;7.32;4.32;;;;;;;23.60;36.77;96598.78;4983098;28;20350;-76
2021/06/13 08:02:09;;;;;;;11.48;4.38;;;;;;;22.94;37.67;96593.34;5001653;28;20210;-76
2021/06/13 08:04:36;;;;;;;7.70;4.65;;;;;;;23.73;35.84;96601.41;4994095;28;20246;-76
2021/06/13 08:07:03;;;;;;;6.88;4.28;;;;;;;23.16;37.09;96599.31;4977388;28;20655;-76
2021/06/13 08:09:28;;;;;;;6.88;4.88;;;;;;;22.72;37.30;96603.22;4976564;28;20552;-74
2021/06/13 08:11:54;;;;;;;8.63;4.50;;;;;;;20.76;41.80;96591.66;5004392;28;20179;-76
2021/06/13 08:14:19;;;;;;;8.35;4.30;;;;;;;21.64;40.09;96593.16;4995997;28;20203;-76
2021/06/13 08:16:44;;;;;;;7.25;4.30;;;;;;;21.67;40.56;96587.53;4979928;28;20183;-74
2021/06/13 08:19:10;;;;;;;5.93;4.25;;;;;;;20.97;42.59;96591.72;4996210;28;20201;-75
2021/06/13 08:21:35;;;;;;;12.73;4.63;;;;;;;21.73;40.96;96590.22;4988313;28;20298;-75
2021/06/13 08:24:01;;;;;;;10.93;4.63;;;;;;;21.55;40.40;96595.13;5001847;28;20239;-74
2021/06/13 08:26:26;;;;;;;5.93;4.28;;;;;;;22.00;38.70;96596.50;4976644;28;20550;-75
2021/06/13 08:28:52;;;;;;;8.20;4.55;;;;;;;21.70;40.54;96590.59;4994111;28;20176;-75
2021/06/13 08:31:17;;;;;;;11.10;4.90;;;;;;;21.94;38.98;96593.81;4979434;28;20171;-75
2021/06/13 08:33:43;;;;;;;6.00;4.22;;;;;;;21.98;39.28;96587.13;4987311;28;20183;-74
2021/06/13 08:36:08;;;;;;;5.13;4.05;;;;;;;22.20;39.47;96590.56;4993764;28;20595;-75
2021/06/13 08:38:34;;;;;;;8.68;4.47;;;;;;;21.04;41.77;96584.69;4976520;28;20180;-77
2021/06/13 08:40:59;;;;;;;5.50;3.90;;;;;;;21.82;39.52;96576.81;4976555;28;20657;-76
2021/06/13 08:43:24;;;;;;;8.50;4.50;;;;;;;21.06;41.35;96582.69;4986215;28;20195;-75
2021/06/13 08:45:54;;;;;;;6.03;3.85;;;;;;;21.87;40.41;96575.25;4993121;28;20584;-75
2021/06/13 08:48:19;;;;;;;6.57;4.20;;;;;;;21.03;41.51;96577.78;4995633;28;20179;-75
2021/06/13 08:50:45;;;;;;;7.38;4.10;;;;;;;21.48;40.42;96581.06;4995699;28;20175;-75
2021/06/13 08:53:10;;;;;;;7.25;4.00;;;;;;;21.00;40.23;96585.25;4991821;28;20184;-75
2021/06/13 08:55:36;;;;;;;6.05;3.95;;;;;;;21.06;41.28;96587.97;4983906;28;20207;-75
2021/06/13 08:58:01;;;;;;;6.10;3.88;;;;;;;20.91;40.79;96587.19;4993432;28;20184;-75
2021/06/13 09:00:30;;;;;;;10.52;4.60;;;;;;;19.85;44.13;96585.78;4993483;28;20183;-75
2021/06/13 09:02:56;;;;;;;6.45;3.70;;;;;;;20.59;43.53;96585.81;4975873;28;20234;-74
2021/06/13 09:05:26;;;;;;;7.05;4.25;;;;;;;20.15;44.15;96594.56;4986893;28;20249;-73
2021/06/13 09:07:59;;;;;;;6.82;4.10;;;;;;;19.32;45.55;96582.28;4978501;28;20205;-75
2021/06/13 09:10:27;;;;;;;7.57;4.20;;;;;;;19.18;46.00;96590.97;4959112;28;20655;-75
2021/06/13 09:13:08;;;;;;;8.68;4.65;;;;;;;19.91;43.83;96582.44;4975772;28;20263;-75
2021/06/13 09:15:35;;;;;;;9.63;4.68;;;;;;;19.98;43.46;96586.00;4984011;28;20203;-76
2021/06/13 09:18:00;;;;;;;7.97;4.47;;;;;;;20.44;42.35;96572.63;4993655;28;20192;-76
2021/06/13 09:20:27;;;;;;;6.40;3.42;;;;;;;20.60;42.87;96577.72;5012554;28;20178;-74
2021/06/13 09:23:12;;;;;;;7.90;4.13;;;;;;;20.28;43.04;96588.63;5011701;28;20202;-74
2021/06/13 09:25:43;;;;;;;4.72;3.60;;;;;;;20.82;41.83;96581.19;4987821;28;20203;-75
2021/06/13 09:28:11;;;;;;;9.07;3.25;;;;;;;20.73;42.75;96586.78;5000930;28;20183;-74
2021/06/13 09:30:38;;;;;;;7.95;3.80;;;;;;;20.82;41.79;96580.38;4992698;28;20183;-74
2021/06/13 09:33:10;;;;;;;6.53;3.97;;;;;;;19.07;45.12;96583.44;4975262;28;20628;-73
2021/06/13 09:35:36;;;;;;;7.88;3.20;;;;;;;19.88;45.70;96590.72;4981280;28;20215;-74
2021/06/13 09:38:08;;;;;;;4.57;3.00;;;;;;;20.54;41.80;96602.19;5002050;28;20550;-75
2021/06/13 09:40:34;;;;;;;4.20;3.10;;;;;;;20.38;39.07;96589.16;4992854;28;20183;-74
2021/06/13 09:43:16;;;;;;;5.35;3.60;;;;;;;20.64;41.26;96591.34;4975307;28;20204;-75
2021/06/13 09:45:50;;;;;;;4.90;3.50;;;;;;;20.80;40.75;96598.22;4975813;28;20199;-74
2021/06/13 09:48:16;;;;;;;10.68;3.58;;;;;;;20.88;41.03;96598.13;4986499;28;20686;-74
2021/06/13 09:50:44;;;;;;;4.95;3.60;;;;;;;21.09;41.59;96603.41;4994649;28;20206;-74
2021/06/13 09:53:26;;;;;;;4.60;3.88;;;;;;;20.38;41.63;96599.72;4994378;28;20172;-72
2021/06/13 09:56:01;;;;;;;5.63;3.53;;;;;;;20.24;42.42;96603.19;5011977;28;20171;-74
2021/06/13 09:58:27;;;;;;;5.97;3.03;;;;;;;20.53;42.09;96603.19;4986545;28;20546;-75
2021/06/13 10:00:52;;;;;;;4.22;2.80;;;;;;;21.19;38.81;96601.28;4995214;28;20175;-76
2021/06/13 10:03:25;;;;;;;3.78;2.78;;;;;;;21.72;38.79;96599.13;4974649;28;20208;-76
2021/06/13 10:05:55;;;;;;;6.22;3.40;;;;;;;22.17;38.10;96607.63;4975088;28;20195;-76
2021/06/13 10:08:20;;;;;;;5.13;2.88;;;;;;;21.64;40.21;96609.03;4982109;28;20657;-76
2021/06/13 10:10:45;;;;;;;5.75;3.25;;;;;;;21.29;39.49;96610.75;4982944;28;20187;-76
2021/06/13 10:13:10;;;;;;;4.65;3.45;;;;;;;20.81;40.29;96613.06;4974749;28;20172;-76
2021/06/13 10:15:36;;;;;;;6.28;3.80;;;;;;;20.13;42.44;96616.81;4974690;28;20278;-76
2021/06/13 10:18:11;;;;;;;4.60;3.17;;;;;;;20.01;43.37;96609.34;4976597;28;20183;-75
2021/06/13 10:20:37;;;;;;;7.07;3.05;;;;;;;20.27;41.75;96616.00;5002197;28;20189;-76
2021/06/13 10:23:04;;;;;;;5.38;3.15;;;;;;;19.48;42.89;96610.31;4993989;28;20202;-75
2021/06/13 10:25:30;;;;;;;8.18;3.15;;;;;;;20.22;40.86;96615.72;5011563;28;20678;-75
2021/06/13 10:27:55;;;;;;;6.32;2.88;;;;;;;20.40;41.18;96604.78;4984977;28;20196;-76
2021/06/13 10:30:21;;;;;;;5.80;2.67;;;;;;;20.98;41.09;96606.56;4981410;28;20195;-76
2021/06/13 10:32:47;;;;;;;5.10;3.00;;;;;;;21.39;40.08;96603.34;5001488;28;20241;-76
2021/06/13 10:35:12;;;;;;;4.05;2.95;;;;;;;21.50;37.80;96600.19;4993776;28;20325;-77
2021/06/13 10:37:38;;;;;;;4.28;2.67;;;;;;;22.13;36.65;96600.28;4981234;28;20222;-76
2021/06/13 10:40:04;;;;;;;3.47;2.38;;;;;;;21.44;37.33;96606.22;4990174;28;20183;-76
2021/06/13 10:42:29;;;;;;;5.05;2.80;;;;;;;20.86;40.11;96608.88;5015744;28;20203;-76
2021/06/13 10:44:56;;;;;;;4.47;2.65;;;;;;;21.00;39.32;96601.91;4997936;28;20221;-76
2021/06/13 10:47:23;;;;;;;7.22;3.10;;;;;;;20.83;39.57;96593.38;4997268;28;20175;-75
2021/06/13 10:49:52;;;;;;;4.32;3.08;;;;;;;20.63;40.59;96592.34;4989486;28;20191;-76
2021/06/13 10:52:20;;;;;;;10.48;5.72;;;;;;;21.28;39.93;96590.63;4978532;28;20192;-76
2021/06/13 10:57:16;;;;;;;5.55;2.80;;;;;;;20.47;39.74;96582.81;4995897;28;20685;-76
2021/06/13 10:59:56;;;;;;;5.80;4.55;;;;;;;21.28;36.35;96590.63;4983541;28;20184;-76
2021/06/13 11:02:23;;;;;;;4.93;3.03;;;;;;;21.08;37.18;96596.50;4990811;28;20301;-76
2021/06/13 11:04:51;;;;;;;8.40;4.03;;;;;;;21.03;35.91;96592.81;4997387;28;20202;-76
2021/06/13 11:07:35;;;;;;;3.40;2.17;;;;;;;21.59;35.36;96592.94;4997554;28;20519;-76
2021/06/13 11:10:19;;;;;;;4.95;3.20;;;;;;;22.00;36.50;96591.22;5010895;28;20187;-76
2021/06/13 11:12:48;;;;;;;4.40;2.92;;;;;;;22.30;36.37;96596.31;4994122;28;20183;-76
2021/06/13 11:15:22;;;;;;;5.72;2.33;;;;;;;22.57;35.32;96595.41;5009338;28;20199;-76
2021/06/13 11:17:51;;;;;;;6.40;2.60;;;;;;;22.02;35.80;96588.38;4983601;28;20224;-75
2021/06/13 11:20:34;;;;;;;3.28;2.35;;;;;;;22.29;36.06;96582.25;4996536;28;20277;-74
2021/06/13 11:23:07;;;;;;;6.18;3.08;;;;;;;22.08;32.46;96582.31;4993048;28;20207;-75
2021/06/13 11:25:36;;;;;;;4.88;2.63;;;;;;;21.85;34.55;96576.47;4994930;28;20212;-74
2021/06/13 11:28:19;;;;;;;4.55;2.67;;;;;;;22.07;33.44;96580.69;4995157;28;20232;-76
2021/06/13 11:30:50;;;;;;;5.38;2.85;;;;;;;21.89;34.30;96578.50;4994082;28;20554;-75
2021/06/13 11:33:32;;;;;;;6.78;3.10;;;;;;;22.51;34.63;96582.16;4999393;28;20727;-75
2021/06/13 11:35:57;;;;;;;4.53;2.40;;;;;;;22.73;34.15;96591.63;5008702;28;20190;-76